sensor_id;sensor_type;location;lat;lon;timestamp;temperature;humidity
35377;DHT22;21480;51.642;4.834;2022-10-16T00:01:27;12.00;99.90
35377;DHT22;21480;51.642;4.834;2022-10-16T00:03:54;12.10;99.90
35377;DHT22;21480;51.642;4.834;2022-10-16T00:06:21;12.10;99.90
35377;DHT22;21480;51.642;4.834;2022-10-16T00:08:48;12.20;99.90
35377;DHT22;21480;51.642;4.834;2022-10-16T00:11:23;12.20;99.90
35377;DHT22;21480;51.642;4.834;2022-10-16T00:13:51;12.30;99.90
35377;DHT22;21480;51.642;4.834;2022-10-16T00:16:18;12.40;99.90
35377;DHT22;21480;51.642;4.834;2022-10-16T00:18:44;12.40;99.90
35377;DHT22;21480;51.642;4.834;2022-10-16T00:21:19;12.40;99.90
35377;DHT22;21480;51.642;4.834;2022-10-16T00:23:45;12.40;99.90
35377;DHT22;21480;51.642;4.834;2022-10-16T00:26:15;12.40;99.90
35377;DHT22;21480;51.642;4.834;2022-10-16T00:28:41;12.50;99.90
35377;DHT22;21480;51.642;4.834;2022-10-16T00:31:09;12.50;99.90
35377;DHT22;21480;51.642;4.834;2022-10-16T00:33:36;12.50;99.90
35377;DHT22;21480;51.642;4.834;2022-10-16T00:36:03;12.60;99.90
35377;DHT22;21480;51.642;4.834;2022-10-16T00:38:29;12.60;99.90
35377;DHT22;21480;51.642;4.834;2022-10-16T00:40:55;12.60;99.90
35377;DHT22;21480;51.642;4.834;2022-10-16T00:43:49;12.70;99.90
35377;DHT22;21480;51.642;4.834;2022-10-16T00:46:50;12.70;99.90
35377;DHT22;21480;51.642;4.834;2022-10-16T00:49:17;12.80;99.90
35377;DHT22;21480;51.642;4.834;2022-10-16T00:51:49;12.90;99.90
35377;DHT22;21480;51.642;4.834;2022-10-16T00:54:31;13.00;99.90
35377;DHT22;21480;51.642;4.834;2022-10-16T00:57:00;13.00;99.90
35377;DHT22;21480;51.642;4.834;2022-10-16T00:59:31;13.00;99.90
35377;DHT22;21480;51.642;4.834;2022-10-16T01:01:58;13.00;99.90
35377;DHT22;21480;51.642;4.834;2022-10-16T01:04:25;13.10;99.90
35377;DHT22;21480;51.642;4.834;2022-10-16T01:15:47;13.10;99.90
35377;DHT22;21480;51.642;4.834;2022-10-16T01:18:43;13.10;99.90
35377;DHT22;21480;51.642;4.834;2022-10-16T01:21:16;13.00;99.90
35377;DHT22;21480;51.642;4.834;2022-10-16T01:32:33;12.80;99.90
35377;DHT22;21480;51.642;4.834;2022-10-16T01:35:26;12.80;99.90
35377;DHT22;21480;51.642;4.834;2022-10-16T01:38:07;12.80;99.90
35377;DHT22;21480;51.642;4.834;2022-10-16T01:40:36;12.80;99.90
35377;DHT22;21480;51.642;4.834;2022-10-16T01:43:17;13.00;99.90
35377;DHT22;21480;51.642;4.834;2022-10-16T01:45:45;12.90;99.90
35377;DHT22;21480;51.642;4.834;2022-10-16T01:48:14;12.90;99.90
35377;DHT22;21480;51.642;4.834;2022-10-16T01:50:43;12.90;99.90
35377;DHT22;21480;51.642;4.834;2022-10-16T01:53:12;12.90;99.90
35377;DHT22;21480;51.642;4.834;2022-10-16T01:55:42;12.90;99.90
35377;DHT22;21480;51.642;4.834;2022-10-16T01:58:12;12.90;99.90
35377;DHT22;21480;51.642;4.834;2022-10-16T02:00:40;12.90;99.90
35377;DHT22;21480;51.642;4.834;2022-10-16T02:03:07;12.80;99.90
35377;DHT22;21480;51.642;4.834;2022-10-16T02:05:47;12.70;99.90
35377;DHT22;21480;51.642;4.834;2022-10-16T02:08:14;12.60;99.90
35377;DHT22;21480;51.642;4.834;2022-10-16T02:10:41;12.50;99.90
35377;DHT22;21480;51.642;4.834;2022-10-16T02:13:10;12.50;99.90
35377;DHT22;21480;51.642;4.834;2022-10-16T02:15:37;12.50;99.90
35377;DHT22;21480;51.642;4.834;2022-10-16T02:18:05;12.50;99.90
35377;DHT22;21480;51.642;4.834;2022-10-16T02:20:40;12.40;99.90
35377;DHT22;21480;51.642;4.834;2022-10-16T02:23:12;12.40;99.90
35377;DHT22;21480;51.642;4.834;2022-10-16T02:25:42;12.30;99.90
35377;DHT22;21480;51.642;4.834;2022-10-16T02:28:17;12.30;99.90
35377;DHT22;21480;51.642;4.834;2022-10-16T02:30:52;12.30;99.90
35377;DHT22;21480;51.642;4.834;2022-10-16T02:33:21;12.30;99.90
35377;DHT22;21480;51.642;4.834;2022-10-16T02:35:49;12.30;99.90
35377;DHT22;21480;51.642;4.834;2022-10-16T02:38:17;12.30;99.90
35377;DHT22;21480;51.642;4.834;2022-10-16T02:40:43;12.30;99.90
35377;DHT22;21480;51.642;4.834;2022-10-16T02:43:09;12.30;99.90
35377;DHT22;21480;51.642;4.834;2022-10-16T02:45:36;12.30;99.90
35377;DHT22;21480;51.642;4.834;2022-10-16T02:48:02;12.30;99.90
35377;DHT22;21480;51.642;4.834;2022-10-16T02:50:28;12.30;99.90
35377;DHT22;21480;51.642;4.834;2022-10-16T02:52:53;12.30;99.90
35377;DHT22;21480;51.642;4.834;2022-10-16T02:55:19;12.20;99.90
35377;DHT22;21480;51.642;4.834;2022-10-16T02:57:45;12.20;99.90
35377;DHT22;21480;51.642;4.834;2022-10-16T03:00:13;12.20;99.90
35377;DHT22;21480;51.642;4.834;2022-10-16T03:02:39;12.10;99.90
35377;DHT22;21480;51.642;4.834;2022-10-16T03:05:06;12.10;99.90
35377;DHT22;21480;51.642;4.834;2022-10-16T03:07:31;12.10;99.90
35377;DHT22;21480;51.642;4.834;2022-10-16T03:09:57;12.00;99.90
35377;DHT22;21480;51.642;4.834;2022-10-16T03:12:26;11.90;99.90
35377;DHT22;21480;51.642;4.834;2022-10-16T03:14:52;11.90;99.90
35377;DHT22;21480;51.642;4.834;2022-10-16T03:17:17;11.80;99.90
35377;DHT22;21480;51.642;4.834;2022-10-16T03:19:43;11.80;99.90
35377;DHT22;21480;51.642;4.834;2022-10-16T03:22:09;11.80;99.90
35377;DHT22;21480;51.642;4.834;2022-10-16T03:24:35;11.80;99.90
35377;DHT22;21480;51.642;4.834;2022-10-16T03:27:00;11.70;99.90
35377;DHT22;21480;51.642;4.834;2022-10-16T03:29:26;11.70;99.90
35377;DHT22;21480;51.642;4.834;2022-10-16T03:31:55;11.60;99.90
35377;DHT22;21480;51.642;4.834;2022-10-16T03:34:20;11.60;99.90
35377;DHT22;21480;51.642;4.834;2022-10-16T03:36:46;11.60;99.90
35377;DHT22;21480;51.642;4.834;2022-10-16T03:39:12;11.70;99.90
35377;DHT22;21480;51.642;4.834;2022-10-16T03:41:38;11.70;99.90
35377;DHT22;21480;51.642;4.834;2022-10-16T03:44:03;11.70;99.90
35377;DHT22;21480;51.642;4.834;2022-10-16T03:46:29;11.70;99.90
35377;DHT22;21480;51.642;4.834;2022-10-16T03:48:55;11.70;99.90
35377;DHT22;21480;51.642;4.834;2022-10-16T03:51:20;11.70;99.90
35377;DHT22;21480;51.642;4.834;2022-10-16T03:53:46;11.70;99.90
35377;DHT22;21480;51.642;4.834;2022-10-16T03:56:12;11.70;99.90
35377;DHT22;21480;51.642;4.834;2022-10-16T03:58:38;11.70;99.90
35377;DHT22;21480;51.642;4.834;2022-10-16T04:01:03;11.80;99.90
35377;DHT22;21480;51.642;4.834;2022-10-16T04:03:29;11.80;99.90
35377;DHT22;21480;51.642;4.834;2022-10-16T04:05:55;11.80;99.90
35377;DHT22;21480;51.642;4.834;2022-10-16T04:08:21;11.80;99.90
35377;DHT22;21480;51.642;4.834;2022-10-16T04:10:47;11.90;99.90
35377;DHT22;21480;51.642;4.834;2022-10-16T04:13:13;11.90;99.90
35377;DHT22;21480;51.642;4.834;2022-10-16T04:15:39;11.90;99.90
35377;DHT22;21480;51.642;4.834;2022-10-16T04:18:05;12.00;99.90
35377;DHT22;21480;51.642;4.834;2022-10-16T04:20:31;12.00;99.90
35377;DHT22;21480;51.642;4.834;2022-10-16T04:22:57;12.00;99.90
35377;DHT22;21480;51.642;4.834;2022-10-16T04:25:23;12.00;99.90
35377;DHT22;21480;51.642;4.834;2022-10-16T04:27:48;12.00;99.90
35377;DHT22;21480;51.642;4.834;2022-10-16T04:30:14;12.00;99.90
35377;DHT22;21480;51.642;4.834;2022-10-16T04:32:40;12.10;99.90
35377;DHT22;21480;51.642;4.834;2022-10-16T04:35:06;12.10;99.90
35377;DHT22;21480;51.642;4.834;2022-10-16T04:37:32;12.00;99.90
35377;DHT22;21480;51.642;4.834;2022-10-16T04:39:58;11.90;99.90
35377;DHT22;21480;51.642;4.834;2022-10-16T04:42:24;11.90;99.90
35377;DHT22;21480;51.642;4.834;2022-10-16T04:44:50;11.90;99.90
35377;DHT22;21480;51.642;4.834;2022-10-16T04:47:15;11.90;99.90
35377;DHT22;21480;51.642;4.834;2022-10-16T04:49:41;11.80;99.90
35377;DHT22;21480;51.642;4.834;2022-10-16T04:52:07;11.80;99.90
35377;DHT22;21480;51.642;4.834;2022-10-16T04:54:34;11.90;99.90
35377;DHT22;21480;51.642;4.834;2022-10-16T04:57:00;11.90;99.90
35377;DHT22;21480;51.642;4.834;2022-10-16T04:59:26;11.90;99.90
35377;DHT22;21480;51.642;4.834;2022-10-16T05:01:52;11.90;99.90
35377;DHT22;21480;51.642;4.834;2022-10-16T05:04:17;11.90;99.90
35377;DHT22;21480;51.642;4.834;2022-10-16T05:06:43;11.90;99.90
35377;DHT22;21480;51.642;4.834;2022-10-16T05:09:09;11.80;99.90
35377;DHT22;21480;51.642;4.834;2022-10-16T05:11:35;11.70;99.90
35377;DHT22;21480;51.642;4.834;2022-10-16T05:14:01;11.60;99.90
35377;DHT22;21480;51.642;4.834;2022-10-16T05:16:27;11.50;99.90
35377;DHT22;21480;51.642;4.834;2022-10-16T05:18:53;11.50;99.90
35377;DHT22;21480;51.642;4.834;2022-10-16T05:21:20;11.60;99.90
35377;DHT22;21480;51.642;4.834;2022-10-16T05:23:46;11.50;99.90
35377;DHT22;21480;51.642;4.834;2022-10-16T05:26:11;11.50;99.90
35377;DHT22;21480;51.642;4.834;2022-10-16T05:28:37;11.60;99.90
35377;DHT22;21480;51.642;4.834;2022-10-16T05:31:07;11.70;99.90
35377;DHT22;21480;51.642;4.834;2022-10-16T05:33:33;11.80;99.90
35377;DHT22;21480;51.642;4.834;2022-10-16T05:36:07;11.70;99.90
35377;DHT22;21480;51.642;4.834;2022-10-16T05:38:35;11.70;99.90
35377;DHT22;21480;51.642;4.834;2022-10-16T05:41:01;11.60;99.90
35377;DHT22;21480;51.642;4.834;2022-10-16T05:43:28;11.50;99.90
35377;DHT22;21480;51.642;4.834;2022-10-16T05:45:59;11.50;99.90
35377;DHT22;21480;51.642;4.834;2022-10-16T05:48:26;11.50;99.90
35377;DHT22;21480;51.642;4.834;2022-10-16T05:51:06;11.40;99.90
35377;DHT22;21480;51.642;4.834;2022-10-16T05:53:34;11.40;99.90
35377;DHT22;21480;51.642;4.834;2022-10-16T05:56:00;11.40;99.90
35377;DHT22;21480;51.642;4.834;2022-10-16T05:58:29;11.40;99.90
35377;DHT22;21480;51.642;4.834;2022-10-16T06:00:56;11.50;99.90
35377;DHT22;21480;51.642;4.834;2022-10-16T06:03:22;11.50;99.90
35377;DHT22;21480;51.642;4.834;2022-10-16T06:05:48;11.60;99.90
35377;DHT22;21480;51.642;4.834;2022-10-16T06:08:14;11.60;99.90
35377;DHT22;21480;51.642;4.834;2022-10-16T06:10:40;11.60;99.90
35377;DHT22;21480;51.642;4.834;2022-10-16T06:13:06;11.70;99.90
35377;DHT22;21480;51.642;4.834;2022-10-16T06:15:31;11.80;99.90
35377;DHT22;21480;51.642;4.834;2022-10-16T06:17:57;11.80;99.90
35377;DHT22;21480;51.642;4.834;2022-10-16T06:20:23;11.90;99.90
35377;DHT22;21480;51.642;4.834;2022-10-16T06:22:48;12.00;99.90
35377;DHT22;21480;51.642;4.834;2022-10-16T06:25:14;12.00;99.90
35377;DHT22;21480;51.642;4.834;2022-10-16T06:27:40;12.10;99.90
35377;DHT22;21480;51.642;4.834;2022-10-16T06:30:07;12.10;99.90
35377;DHT22;21480;51.642;4.834;2022-10-16T06:32:32;12.10;99.90
35377;DHT22;21480;51.642;4.834;2022-10-16T06:34:58;12.10;99.90
35377;DHT22;21480;51.642;4.834;2022-10-16T06:37:24;12.20;99.90
35377;DHT22;21480;51.642;4.834;2022-10-16T06:39:50;12.20;99.90
35377;DHT22;21480;51.642;4.834;2022-10-16T06:42:19;12.30;99.90
35377;DHT22;21480;51.642;4.834;2022-10-16T06:44:45;12.30;99.90
35377;DHT22;21480;51.642;4.834;2022-10-16T06:47:10;12.30;99.90
35377;DHT22;21480;51.642;4.834;2022-10-16T06:49:36;12.30;99.90
35377;DHT22;21480;51.642;4.834;2022-10-16T06:52:03;12.40;99.90
35377;DHT22;21480;51.642;4.834;2022-10-16T06:54:28;12.40;99.90
35377;DHT22;21480;51.642;4.834;2022-10-16T06:56:54;12.50;99.90
35377;DHT22;21480;51.642;4.834;2022-10-16T06:59:21;12.50;99.90
35377;DHT22;21480;51.642;4.834;2022-10-16T07:01:46;12.50;99.90
35377;DHT22;21480;51.642;4.834;2022-10-16T07:04:12;12.60;99.90
35377;DHT22;21480;51.642;4.834;2022-10-16T07:06:38;12.60;99.90
35377;DHT22;21480;51.642;4.834;2022-10-16T07:09:06;12.70;99.90
35377;DHT22;21480;51.642;4.834;2022-10-16T07:11:33;12.80;99.90
35377;DHT22;21480;51.642;4.834;2022-10-16T07:13:58;12.80;99.90
35377;DHT22;21480;51.642;4.834;2022-10-16T07:16:31;12.90;99.90
35377;DHT22;21480;51.642;4.834;2022-10-16T07:18:58;13.00;99.90
35377;DHT22;21480;51.642;4.834;2022-10-16T07:21:26;13.10;99.90
35377;DHT22;21480;51.642;4.834;2022-10-16T07:23:59;13.10;99.90
35377;DHT22;21480;51.642;4.834;2022-10-16T07:26:29;13.20;99.90
35377;DHT22;21480;51.642;4.834;2022-10-16T07:28:56;13.20;99.90
35377;DHT22;21480;51.642;4.834;2022-10-16T07:31:23;13.10;99.90
35377;DHT22;21480;51.642;4.834;2022-10-16T07:33:49;13.00;99.90
35377;DHT22;21480;51.642;4.834;2022-10-16T07:36:18;12.80;99.90
35377;DHT22;21480;51.642;4.834;2022-10-16T07:38:45;12.70;99.90
35377;DHT22;21480;51.642;4.834;2022-10-16T07:41:16;12.70;99.90
35377;DHT22;21480;51.642;4.834;2022-10-16T07:43:46;12.70;99.90
35377;DHT22;21480;51.642;4.834;2022-10-16T07:46:13;12.70;99.90
35377;DHT22;21480;51.642;4.834;2022-10-16T07:48:39;12.80;99.90
35377;DHT22;21480;51.642;4.834;2022-10-16T07:51:06;12.80;99.90
35377;DHT22;21480;51.642;4.834;2022-10-16T07:53:33;12.90;99.90
35377;DHT22;21480;51.642;4.834;2022-10-16T07:56:00;13.00;99.90
35377;DHT22;21480;51.642;4.834;2022-10-16T07:58:30;13.20;99.90
35377;DHT22;21480;51.642;4.834;2022-10-16T08:00:59;13.30;99.90
35377;DHT22;21480;51.642;4.834;2022-10-16T08:03:25;13.40;99.90
35377;DHT22;21480;51.642;4.834;2022-10-16T08:05:51;13.50;99.90
35377;DHT22;21480;51.642;4.834;2022-10-16T08:08:18;13.50;99.90
35377;DHT22;21480;51.642;4.834;2022-10-16T08:10:44;13.70;99.90
35377;DHT22;21480;51.642;4.834;2022-10-16T08:13:10;13.80;99.90
35377;DHT22;21480;51.642;4.834;2022-10-16T08:15:36;13.90;99.90
35377;DHT22;21480;51.642;4.834;2022-10-16T08:18:04;13.90;99.90
35377;DHT22;21480;51.642;4.834;2022-10-16T08:20:31;14.10;99.90
35377;DHT22;21480;51.642;4.834;2022-10-16T08:22:58;14.20;99.90
35377;DHT22;21480;51.642;4.834;2022-10-16T08:25:24;14.30;99.90
35377;DHT22;21480;51.642;4.834;2022-10-16T08:27:50;14.50;99.90
35377;DHT22;21480;51.642;4.834;2022-10-16T08:30:18;14.60;99.90
35377;DHT22;21480;51.642;4.834;2022-10-16T08:32:44;14.70;99.90
35377;DHT22;21480;51.642;4.834;2022-10-16T08:35:10;14.70;99.90
35377;DHT22;21480;51.642;4.834;2022-10-16T08:37:37;14.70;99.90
35377;DHT22;21480;51.642;4.834;2022-10-16T08:40:05;14.80;99.90
35377;DHT22;21480;51.642;4.834;2022-10-16T08:43:00;14.80;99.90
35377;DHT22;21480;51.642;4.834;2022-10-16T08:46:24;14.80;99.90
35377;DHT22;21480;51.642;4.834;2022-10-16T08:51:07;15.00;99.90
35377;DHT22;21480;51.642;4.834;2022-10-16T08:53:42;15.00;99.90
35377;DHT22;21480;51.642;4.834;2022-10-16T08:56:09;15.10;99.90
35377;DHT22;21480;51.642;4.834;2022-10-16T08:58:35;15.20;99.90
35377;DHT22;21480;51.642;4.834;2022-10-16T09:01:03;15.20;99.90
35377;DHT22;21480;51.642;4.834;2022-10-16T09:12:39;15.60;99.90
35377;DHT22;21480;51.642;4.834;2022-10-16T09:25:30;16.00;99.90
35377;DHT22;21480;51.642;4.834;2022-10-16T09:27:56;16.10;99.90
35377;DHT22;21480;51.642;4.834;2022-10-16T09:30:22;16.10;99.90
35377;DHT22;21480;51.642;4.834;2022-10-16T09:32:52;16.10;99.90
35377;DHT22;21480;51.642;4.834;2022-10-16T09:37:58;16.20;99.90
35377;DHT22;21480;51.642;4.834;2022-10-16T09:40:36;16.30;99.90
35377;DHT22;21480;51.642;4.834;2022-10-16T09:45:31;16.50;99.90
35377;DHT22;21480;51.642;4.834;2022-10-16T09:47:56;16.70;99.90
35377;DHT22;21480;51.642;4.834;2022-10-16T09:50:25;16.80;99.90
35377;DHT22;21480;51.642;4.834;2022-10-16T09:53:12;16.80;99.90
35377;DHT22;21480;51.642;4.834;2022-10-16T09:55:51;16.80;99.90
35377;DHT22;21480;51.642;4.834;2022-10-16T09:58:17;17.00;99.90
35377;DHT22;21480;51.642;4.834;2022-10-16T10:00:50;17.00;99.90
35377;DHT22;21480;51.642;4.834;2022-10-16T10:03:36;17.10;99.90
35377;DHT22;21480;51.642;4.834;2022-10-16T10:06:21;17.20;99.90
35377;DHT22;21480;51.642;4.834;2022-10-16T10:09:23;17.20;99.90
35377;DHT22;21480;51.642;4.834;2022-10-16T10:11:58;17.20;99.90
35377;DHT22;21480;51.642;4.834;2022-10-16T10:14:31;17.20;99.90
35377;DHT22;21480;51.642;4.834;2022-10-16T10:19:36;17.00;99.90
35377;DHT22;21480;51.642;4.834;2022-10-16T10:22:16;16.90;99.90
35377;DHT22;21480;51.642;4.834;2022-10-16T10:24:42;16.80;99.90
35377;DHT22;21480;51.642;4.834;2022-10-16T10:27:16;16.80;99.90
35377;DHT22;21480;51.642;4.834;2022-10-16T10:29:54;17.00;99.90
35377;DHT22;21480;51.642;4.834;2022-10-16T10:34:59;17.00;99.90
35377;DHT22;21480;51.642;4.834;2022-10-16T10:45:47;17.70;99.90
35377;DHT22;21480;51.642;4.834;2022-10-16T11:07:49;19.30;99.90
35377;DHT22;21480;51.642;4.834;2022-10-16T11:10:20;19.10;99.90
35377;DHT22;21480;51.642;4.834;2022-10-16T11:12:51;18.70;99.90
35377;DHT22;21480;51.642;4.834;2022-10-16T11:15:29;18.30;99.90
35377;DHT22;21480;51.642;4.834;2022-10-16T11:18:02;18.10;99.90
35377;DHT22;21480;51.642;4.834;2022-10-16T11:20:34;18.10;99.90
35377;DHT22;21480;51.642;4.834;2022-10-16T11:25:46;18.30;99.90
35377;DHT22;21480;51.642;4.834;2022-10-16T11:28:20;18.00;99.90
35377;DHT22;21480;51.642;4.834;2022-10-16T11:31:00;17.90;99.90
35377;DHT22;21480;51.642;4.834;2022-10-16T11:33:36;17.90;99.90
35377;DHT22;21480;51.642;4.834;2022-10-16T11:36:27;18.00;99.90
35377;DHT22;21480;51.642;4.834;2022-10-16T11:42:19;17.70;99.90
35377;DHT22;21480;51.642;4.834;2022-10-16T11:50:45;17.90;99.90
35377;DHT22;21480;51.642;4.834;2022-10-16T11:53:41;18.40;99.90
35377;DHT22;21480;51.642;4.834;2022-10-16T11:56:12;18.90;99.90
35377;DHT22;21480;51.642;4.834;2022-10-16T11:59:01;19.00;99.90
35377;DHT22;21480;51.642;4.834;2022-10-16T12:06:35;19.70;99.90
35377;DHT22;21480;51.642;4.834;2022-10-16T12:09:03;19.30;99.90
35377;DHT22;21480;51.642;4.834;2022-10-16T12:19:57;23.40;99.90
35377;DHT22;21480;51.642;4.834;2022-10-16T12:22:28;24.40;99.90
35377;DHT22;21480;51.642;4.834;2022-10-16T12:24:55;24.40;99.90
35377;DHT22;21480;51.642;4.834;2022-10-16T12:27:33;24.40;99.90
35377;DHT22;21480;51.642;4.834;2022-10-16T12:30:02;24.30;99.90
35377;DHT22;21480;51.642;4.834;2022-10-16T12:32:35;22.90;99.90
35377;DHT22;21480;51.642;4.834;2022-10-16T12:35:03;22.30;99.90
35377;DHT22;21480;51.642;4.834;2022-10-16T12:37:37;22.20;99.90
35377;DHT22;21480;51.642;4.834;2022-10-16T12:40:15;22.90;99.90
35377;DHT22;21480;51.642;4.834;2022-10-16T12:42:42;23.70;99.90
35377;DHT22;21480;51.642;4.834;2022-10-16T12:45:40;25.00;99.90
35377;DHT22;21480;51.642;4.834;2022-10-16T12:48:20;25.60;99.90
35377;DHT22;21480;51.642;4.834;2022-10-16T12:50:47;25.80;99.90
35377;DHT22;21480;51.642;4.834;2022-10-16T12:53:23;25.80;99.90
35377;DHT22;21480;51.642;4.834;2022-10-16T12:58:33;25.90;99.90
35377;DHT22;21480;51.642;4.834;2022-10-16T13:04:12;26.10;99.90
35377;DHT22;21480;51.642;4.834;2022-10-16T13:07:02;25.80;99.90
35377;DHT22;21480;51.642;4.834;2022-10-16T13:12:18;25.40;99.90
35377;DHT22;21480;51.642;4.834;2022-10-16T13:14:58;25.50;99.90
35377;DHT22;21480;51.642;4.834;2022-10-16T13:23:23;25.70;99.90
35377;DHT22;21480;51.642;4.834;2022-10-16T13:28:18;25.80;99.90
35377;DHT22;21480;51.642;4.834;2022-10-16T13:30:52;25.20;99.90
35377;DHT22;21480;51.642;4.834;2022-10-16T13:33:25;25.30;99.90
35377;DHT22;21480;51.642;4.834;2022-10-16T13:35:56;25.50;99.90
35377;DHT22;21480;51.642;4.834;2022-10-16T13:38:27;25.50;99.90
35377;DHT22;21480;51.642;4.834;2022-10-16T13:41:00;25.60;99.90
35377;DHT22;21480;51.642;4.834;2022-10-16T13:46:27;24.70;99.90
35377;DHT22;21480;51.642;4.834;2022-10-16T13:49:05;23.70;99.90
35377;DHT22;21480;51.642;4.834;2022-10-16T13:51:34;23.30;99.90
35377;DHT22;21480;51.642;4.834;2022-10-16T13:54:00;24.20;99.90
35377;DHT22;21480;51.642;4.834;2022-10-16T13:56:29;24.60;99.90
35377;DHT22;21480;51.642;4.834;2022-10-16T14:01:28;25.40;99.90
35377;DHT22;21480;51.642;4.834;2022-10-16T14:04:04;25.70;99.90
35377;DHT22;21480;51.642;4.834;2022-10-16T14:06:31;25.80;99.90
35377;DHT22;21480;51.642;4.834;2022-10-16T14:09:07;25.70;99.90
35377;DHT22;21480;51.642;4.834;2022-10-16T14:11:46;25.20;99.90
35377;DHT22;21480;51.642;4.834;2022-10-16T14:14:14;25.40;99.90
35377;DHT22;21480;51.642;4.834;2022-10-16T14:16:42;24.60;99.90
35377;DHT22;21480;51.642;4.834;2022-10-16T14:19:27;23.70;99.90
35377;DHT22;21480;51.642;4.834;2022-10-16T14:21:53;22.60;99.90
35377;DHT22;21480;51.642;4.834;2022-10-16T14:24:39;22.00;99.90
35377;DHT22;21480;51.642;4.834;2022-10-16T14:30:15;20.80;99.90
35377;DHT22;21480;51.642;4.834;2022-10-16T14:32:51;20.30;99.90
35377;DHT22;21480;51.642;4.834;2022-10-16T14:38:00;20.70;99.90
35377;DHT22;21480;51.642;4.834;2022-10-16T14:40:32;20.90;99.90
35377;DHT22;21480;51.642;4.834;2022-10-16T14:43:00;20.90;99.90
35377;DHT22;21480;51.642;4.834;2022-10-16T14:45:28;20.60;99.90
35377;DHT22;21480;51.642;4.834;2022-10-16T14:48:01;20.30;99.90
35377;DHT22;21480;51.642;4.834;2022-10-16T14:50:28;20.10;99.90
35377;DHT22;21480;51.642;4.834;2022-10-16T14:52:54;20.00;99.90
35377;DHT22;21480;51.642;4.834;2022-10-16T14:55:20;19.90;99.90
35377;DHT22;21480;51.642;4.834;2022-10-16T14:57:46;19.60;99.90
35377;DHT22;21480;51.642;4.834;2022-10-16T15:00:20;19.30;99.90
35377;DHT22;21480;51.642;4.834;2022-10-16T15:02:47;19.10;99.90
35377;DHT22;21480;51.642;4.834;2022-10-16T15:05:18;19.10;99.90
35377;DHT22;21480;51.642;4.834;2022-10-16T15:07:44;19.00;99.90
35377;DHT22;21480;51.642;4.834;2022-10-16T15:10:12;18.90;99.90
35377;DHT22;21480;51.642;4.834;2022-10-16T15:12:38;18.80;99.90
35377;DHT22;21480;51.642;4.834;2022-10-16T15:17:48;18.60;99.90
35377;DHT22;21480;51.642;4.834;2022-10-16T15:20:18;18.50;99.90
35377;DHT22;21480;51.642;4.834;2022-10-16T15:22:43;18.50;99.90
35377;DHT22;21480;51.642;4.834;2022-10-16T15:27:59;18.20;99.90
35377;DHT22;21480;51.642;4.834;2022-10-16T15:30:26;18.10;99.90
35377;DHT22;21480;51.642;4.834;2022-10-16T15:32:51;17.90;99.90
35377;DHT22;21480;51.642;4.834;2022-10-16T15:35:17;17.80;99.90
35377;DHT22;21480;51.642;4.834;2022-10-16T15:37:43;17.70;99.90
35377;DHT22;21480;51.642;4.834;2022-10-16T15:40:10;17.60;99.90
35377;DHT22;21480;51.642;4.834;2022-10-16T15:42:36;17.40;99.90
35377;DHT22;21480;51.642;4.834;2022-10-16T15:45:02;17.30;99.90
35377;DHT22;21480;51.642;4.834;2022-10-16T15:47:29;17.30;99.90
35377;DHT22;21480;51.642;4.834;2022-10-16T15:49:55;17.30;99.90
35377;DHT22;21480;51.642;4.834;2022-10-16T15:52:20;17.10;99.90
35377;DHT22;21480;51.642;4.834;2022-10-16T15:54:46;17.10;99.90
35377;DHT22;21480;51.642;4.834;2022-10-16T15:57:12;17.00;99.90
35377;DHT22;21480;51.642;4.834;2022-10-16T15:59:37;16.90;99.90
35377;DHT22;21480;51.642;4.834;2022-10-16T16:02:03;16.90;99.90
35377;DHT22;21480;51.642;4.834;2022-10-16T16:04:32;16.80;99.90
35377;DHT22;21480;51.642;4.834;2022-10-16T16:06:57;16.70;99.90
35377;DHT22;21480;51.642;4.834;2022-10-16T16:09:23;16.70;99.90
35377;DHT22;21480;51.642;4.834;2022-10-16T16:11:49;16.60;99.90
35377;DHT22;21480;51.642;4.834;2022-10-16T16:14:17;16.50;99.90
35377;DHT22;21480;51.642;4.834;2022-10-16T16:16:42;16.40;99.90
35377;DHT22;21480;51.642;4.834;2022-10-16T16:19:08;16.30;99.90
35377;DHT22;21480;51.642;4.834;2022-10-16T16:21:35;16.20;99.90
35377;DHT22;21480;51.642;4.834;2022-10-16T16:24:01;16.20;99.90
35377;DHT22;21480;51.642;4.834;2022-10-16T16:26:33;16.10;99.90
35377;DHT22;21480;51.642;4.834;2022-10-16T16:29:03;16.00;99.90
35377;DHT22;21480;51.642;4.834;2022-10-16T16:31:30;16.00;99.90
35377;DHT22;21480;51.642;4.834;2022-10-16T16:33:57;15.90;99.90
35377;DHT22;21480;51.642;4.834;2022-10-16T16:36:24;15.90;99.90
35377;DHT22;21480;51.642;4.834;2022-10-16T16:38:50;15.80;99.90
35377;DHT22;21480;51.642;4.834;2022-10-16T16:41:21;15.80;99.90
35377;DHT22;21480;51.642;4.834;2022-10-16T16:43:47;15.70;99.90
35377;DHT22;21480;51.642;4.834;2022-10-16T16:46:14;15.70;99.90
35377;DHT22;21480;51.642;4.834;2022-10-16T16:48:40;15.60;99.90
35377;DHT22;21480;51.642;4.834;2022-10-16T16:51:08;15.50;99.90
35377;DHT22;21480;51.642;4.834;2022-10-16T16:53:36;15.50;99.90
35377;DHT22;21480;51.642;4.834;2022-10-16T16:56:04;15.40;99.90
35377;DHT22;21480;51.642;4.834;2022-10-16T16:58:30;15.30;99.90
35377;DHT22;21480;51.642;4.834;2022-10-16T17:00:56;15.30;99.90
35377;DHT22;21480;51.642;4.834;2022-10-16T17:03:21;15.30;99.90
35377;DHT22;21480;51.642;4.834;2022-10-16T17:06:02;15.20;99.90
35377;DHT22;21480;51.642;4.834;2022-10-16T17:08:28;15.20;99.90
35377;DHT22;21480;51.642;4.834;2022-10-16T17:11:03;15.20;99.90
35377;DHT22;21480;51.642;4.834;2022-10-16T17:13:31;15.20;99.90
35377;DHT22;21480;51.642;4.834;2022-10-16T17:15:59;15.10;99.90
35377;DHT22;21480;51.642;4.834;2022-10-16T17:18:28;15.10;99.90
35377;DHT22;21480;51.642;4.834;2022-10-16T17:20:54;15.10;99.90
35377;DHT22;21480;51.642;4.834;2022-10-16T17:23:19;15.00;99.90
35377;DHT22;21480;51.642;4.834;2022-10-16T17:25:46;14.90;99.90
35377;DHT22;21480;51.642;4.834;2022-10-16T17:28:13;14.90;99.90
35377;DHT22;21480;51.642;4.834;2022-10-16T17:30:40;14.90;99.90
35377;DHT22;21480;51.642;4.834;2022-10-16T17:33:07;14.90;99.90
35377;DHT22;21480;51.642;4.834;2022-10-16T17:35:51;14.80;99.90
35377;DHT22;21480;51.642;4.834;2022-10-16T17:38:16;14.80;99.90
35377;DHT22;21480;51.642;4.834;2022-10-16T17:40:42;14.80;99.90
35377;DHT22;21480;51.642;4.834;2022-10-16T17:43:08;14.70;99.90
35377;DHT22;21480;51.642;4.834;2022-10-16T17:45:37;14.70;99.90
35377;DHT22;21480;51.642;4.834;2022-10-16T17:48:03;14.70;99.90
35377;DHT22;21480;51.642;4.834;2022-10-16T17:50:29;14.70;99.90
35377;DHT22;21480;51.642;4.834;2022-10-16T17:52:55;14.70;99.90
35377;DHT22;21480;51.642;4.834;2022-10-16T17:55:21;14.70;99.90
35377;DHT22;21480;51.642;4.834;2022-10-16T17:57:47;14.60;99.90
35377;DHT22;21480;51.642;4.834;2022-10-16T18:02:39;14.60;99.90